Time,TemperatureF,DewpointF,PressureIn,WindDirection,WindDirectionDegrees,WindSpeedMPH,WindSpeedGustMPH,Humidity,HourlyPrecipIn,Conditions,Clouds,dailyrainin,SolarRadiationWatts/m^2,SoftwareType,DateUTC
2013-02-10 00:12:00,71.3,61.0,30.16,ENE,62,2.0,-999.0,71,-99.99,,,0.00,0,weatherlink.com 1.10,2013-02-10 05:12:00,
2013-02-10 00:27:00,71.1,61.0,30.16,East,86,1.0,-999.0,70,-99.99,,,0.00,0,weatherlink.com 1.10,2013-02-10 05:27:00,
2013-02-10 00:42:00,71.1,61.0,30.16,East,86,7.0,-999.0,70,-99.99,,,0.00,0,weatherlink.com 1.10,2013-02-10 05:42:00,
2013-02-10 00:58:00,71.2,61.0,30.15,East,92,2.0,-999.0,70,-99.99,,,0.00,0,weatherlink.com 1.10,2013-02-10 05:58:00,
2013-02-10 01:13:00,71.1,61.0,30.15,East,95,6.0,-999.0,71,-99.99,,,0.00,0,weatherlink.com 1.10,2013-02-10 06:13:00,
2013-02-10 01:28:00,71.1,62.0,30.15,ENE,64,6.0,-999.0,72,-99.99,,,0.00,0,weatherlink.com 1.10,2013-02-10 06:28:00,
2013-02-10 01:43:00,71.1,62.0,30.15,East,101,4.0,-999.0,72,-99.99,,,0.00,0,weatherlink.com 1.10,2013-02-10 06:43:00,
2013-02-10 01:57:00,71.2,62.0,30.15,ENE,59,4.0,-999.0,72,-99.99,,,0.00,0,weatherlink.com 1.10,2013-02-10 06:57:00,
2013-02-10 02:13:00,71.2,62.0,30.14,East,88,5.0,-999.0,73,-99.99,,,0.00,0,weatherlink.com 1.10,2013-02-10 07:13:00,
2013-02-10 02:28:00,71.3,62.0,30.14,East,93,6.0,-999.0,73,-99.99,,,0.00,0,weatherlink.com 1.10,2013-02-10 07:28:00,
2013-02-10 02:43:00,71.4,62.0,30.14,ENE,57,11.0,-999.0,73,-99.99,,,0.00,0,weatherlink.com 1.10,2013-02-10 07:43:00,
2013-02-10 02:58:00,71.4,63.0,30.14,East,80,2.0,-999.0,74,-99.99,,,0.00,0,weatherlink.com 1.10,2013-02-10 07:58:00,
2013-02-10 03:13:00,71.5,63.0,30.14,East,87,4.0,-999.0,74,-99.99,,,0.00,0,weatherlink.com 1.10,2013-02-10 08:13:00,
2013-02-10 03:28:00,71.7,61.0,30.14,ENE,76,4.0,-999.0,70,-99.99,,,0.00,0,weatherlink.com 1.10,2013-02-10 08:28:00,
2013-02-10 03:43:00,71.6,61.0,30.14,ENE,65,1.0,-999.0,70,-99.99,,,0.00,0,weatherlink.com 1.10,2013-02-10 08:43:00,
2013-02-10 03:58:00,71.4,61.0,30.14,East,91,2.0,-999.0,69,-99.99,,,0.00,0,weatherlink.com 1.10,2013-02-10 08:58:00,
2013-02-10 04:13:00,71.3,61.0,30.14,ENE,77,0.0,-999.0,70,-99.99,,,0.00,0,weatherlink.com 1.10,2013-02-10 09:13:00,
2013-02-10 04:28:00,71.3,61.0,30.14,ENE,74,1.0,-999.0,69,-99.99,,,0.00,0,weatherlink.com 1.10,2013-02-10 09:28:00,
2013-02-10 04:43:00,71.2,61.0,30.14,East,82,0.0,-999.0,69,-99.99,,,0.00,0,weatherlink.com 1.10,2013-02-10 09:43:00,
2013-02-10 04:58:00,71.2,61.0,30.14,East,79,3.0,-999.0,70,-99.99,,,0.00,0,weatherlink.com 1.10,2013-02-10 09:58:00,
2013-02-10 05:13:00,71.3,62.0,30.14,East,92,4.0,-999.0,72,-99.99,,,0.00,0,weatherlink.com 1.10,2013-02-10 10:13:00,
2013-02-10 05:28:00,71.5,62.0,30.14,ENE,76,2.0,-999.0,72,-99.99,,,0.00,0,weatherlink.com 1.10,2013-02-10 10:28:00,
2013-02-10 05:43:00,71.4,62.0,30.15,East,90,1.0,-999.0,72,-99.99,,,0.00,0,weatherlink.com 1.10,2013-02-10 10:43:00,
2013-02-10 05:58:00,71.2,62.0,30.15,East,81,1.0,-999.0,73,-99.99,,,0.00,0,weatherlink.com 1.10,2013-02-10 10:58:00,
2013-02-10 06:13:00,70.9,62.0,30.16,ESE,107,5.0,-999.0,73,-99.99,,,0.00,0,weatherlink.com 1.10,2013-02-10 11:13:00,
2013-02-10 06:28:00,71.0,61.0,30.16,East,85,5.0,-999.0,71,-99.99,,,0.00,0,weatherlink.com 1.10,2013-02-10 11:28:00,
2013-02-10 06:43:00,71.0,61.0,30.17,ENE,64,1.0,-999.0,70,-99.99,,,0.00,0,weatherlink.com 1.10,2013-02-10 11:43:00,
2013-02-10 06:58:00,71.2,61.0,30.18,East,101,0.0,-999.0,69,-99.99,,,0.00,0,weatherlink.com 1.10,2013-02-10 11:58:00,
2013-02-10 07:13:00,71.2,61.0,30.18,ENE,63,1.0,-999.0,69,-99.99,,,0.00,14,weatherlink.com 1.10,2013-02-10 12:13:00,
2013-02-10 07:28:00,71.3,61.0,30.19,East,96,5.0,-999.0,69,-99.99,,,0.00,26,weatherlink.com 1.10,2013-02-10 12:28:00,
2013-02-10 07:43:00,71.6,60.0,30.19,East,97,2.0,-999.0,68,-99.99,,,0.00,40,weatherlink.com 1.10,2013-02-10 12:43:00,
2013-02-10 07:58:00,72.1,61.0,30.19,East,93,0.0,-999.0,68,-99.99,,,0.00,47,weatherlink.com 1.10,2013-02-10 12:58:00,
2013-02-10 08:13:00,72.8,61.0,30.20,SE,128,4.0,-999.0,67,-99.99,,,0.00,188,weatherlink.com 1.10,2013-02-10 13:13:00,
2013-02-10 08:29:00,73.2,60.0,30.20,East,80,6.0,-999.0,64,-99.99,,,0.00,248,weatherlink.com 1.10,2013-02-10 13:29:00,
2013-02-10 08:43:00,73.2,61.0,30.20,East,84,3.0,-999.0,65,-99.99,,,0.00,74,weatherlink.com 1.10,2013-02-10 13:43:00,
2013-02-10 08:58:00,74.2,61.0,30.21,East,86,3.0,-999.0,64,-99.99,,,0.00,74,weatherlink.com 1.10,2013-02-10 13:58:00,
2013-02-10 09:13:00,74.6,61.0,30.21,East,93,0.0,-999.0,62,-99.99,,,0.00,417,weatherlink.com 1.10,2013-02-10 14:13:00,
2013-02-10 09:28:00,75.8,61.0,30.22,SE,125,5.0,-999.0,61,-99.99,,,0.00,127,weatherlink.com 1.10,2013-02-10 14:28:00,
2013-02-10 09:44:00,75.3,62.0,30.22,SE,133,6.0,-999.0,63,-99.99,,,0.00,515,weatherlink.com 1.10,2013-02-10 14:44:00,
2013-02-10 09:59:00,75.3,60.0,30.23,East,94,2.0,-999.0,60,-99.99,,,0.00,580,weatherlink.com 1.10,2013-02-10 14:59:00,
2013-02-10 10:14:00,76.4,61.0,30.23,ESE,103,0.0,-999.0,60,-99.99,,,0.00,684,weatherlink.com 1.10,2013-02-10 15:14:00,
2013-02-10 10:29:00,76.0,62.0,30.23,East,98,4.0,-999.0,63,-99.99,,,0.00,471,weatherlink.com 1.10,2013-02-10 15:29:00,
2013-02-10 10:44:00,76.0,64.0,30.24,East,80,0.0,-999.0,66,-99.99,,,0.00,237,weatherlink.com 1.10,2013-02-10 15:44:00,
2013-02-10 10:59:00,76.1,65.0,30.24,East,91,4.0,-999.0,69,-99.99,,,0.00,287,weatherlink.com 1.10,2013-02-10 15:59:00,
2013-02-10 11:14:00,75.2,65.0,30.24,ENE,75,3.0,-999.0,71,-99.99,,,0.00,281,weatherlink.com 1.10,2013-02-10 16:14:00,
2013-02-10 11:29:00,75.5,65.0,30.24,East,92,5.0,-999.0,70,-99.99,,,0.00,218,weatherlink.com 1.10,2013-02-10 16:29:00,
2013-02-10 11:44:00,72.0,66.0,30.24,ENE,78,1.0,-999.0,81,-99.99,,,0.02,172,weatherlink.com 1.10,2013-02-10 16:44:00,
2013-02-10 11:59:00,72.3,65.0,30.23,East,82,7.0,-999.0,79,-99.99,,,0.02,213,weatherlink.com 1.10,2013-02-10 16:59:00,
2013-02-10 12:14:00,73.4,65.0,30.23,East,79,10.0,-999.0,75,-99.99,,,0.02,485,weatherlink.com 1.10,2013-02-10 17:14:00,
2013-02-10 12:29:00,76.0,66.0,30.22,ESE,105,7.0,-999.0,70,-99.99,,,0.02,988,weatherlink.com 1.10,2013-02-10 17:29:00,
2013-02-10 12:44:00,76.3,65.0,30.22,East,86,11.0,-999.0,69,-99.99,,,0.02,322,weatherlink.com 1.10,2013-02-10 17:44:00,
2013-02-10 12:59:00,75.3,65.0,30.21,ENE,78,2.0,-999.0,70,-99.99,,,0.02,385,weatherlink.com 1.10,2013-02-10 17:59:00,
2013-02-10 13:14:00,75.2,65.0,30.21,East,98,4.0,-999.0,70,-99.99,,,0.02,642,weatherlink.com 1.10,2013-02-10 18:14:00,
2013-02-10 13:29:00,75.6,64.0,30.20,East,93,14.0,-999.0,68,-99.99,,,0.02,295,weatherlink.com 1.10,2013-02-10 18:29:00,
2013-02-10 13:44:00,75.1,65.0,30.20,ENE,78,4.0,-999.0,70,-99.99,,,0.02,452,weatherlink.com 1.10,2013-02-10 18:44:00,
2013-02-10 13:59:00,74.9,64.0,30.20,East,87,5.0,-999.0,69,-99.99,,,0.02,211,weatherlink.com 1.10,2013-02-10 18:59:00,
2013-02-10 14:14:00,74.8,64.0,30.19,East,86,5.0,-999.0,69,-99.99,,,0.02,534,weatherlink.com 1.10,2013-02-10 19:14:00,
2013-02-10 14:29:00,74.7,64.0,30.19,ESE,111,7.0,-999.0,70,-99.99,,,0.02,374,weatherlink.com 1.10,2013-02-10 19:29:00,
2013-02-10 14:44:00,74.6,64.0,30.18,ESE,117,6.0,-999.0,70,-99.99,,,0.02,171,weatherlink.com 1.10,2013-02-10 19:44:00,
2013-02-10 14:59:00,74.0,64.0,30.18,East,90,9.0,-999.0,71,-99.99,,,0.02,90,weatherlink.com 1.10,2013-02-10 19:59:00,
2013-02-10 15:14:00,73.9,64.0,30.17,East,84,7.0,-999.0,71,-99.99,,,0.02,214,weatherlink.com 1.10,2013-02-10 20:14:00,
2013-02-10 15:29:00,74.1,64.0,30.17,East,98,5.0,-999.0,71,-99.99,,,0.02,167,weatherlink.com 1.10,2013-02-10 20:29:00,
2013-02-10 15:44:00,74.0,64.0,30.17,ENE,74,2.0,-999.0,71,-99.99,,,0.02,220,weatherlink.com 1.10,2013-02-10 20:44:00,
2013-02-10 15:59:00,74.2,64.0,30.17,East,96,5.0,-999.0,70,-99.99,,,0.02,183,weatherlink.com 1.10,2013-02-10 20:59:00,
2013-02-10 16:14:00,73.9,64.0,30.17,SSE,148,4.0,-999.0,70,-99.99,,,0.02,135,weatherlink.com 1.10,2013-02-10 21:14:00,
2013-02-10 16:29:00,73.8,63.0,30.17,East,101,4.0,-999.0,70,-99.99,,,0.02,95,weatherlink.com 1.10,2013-02-10 21:29:00,
2013-02-10 16:44:00,73.9,63.0,30.17,East,80,1.0,-999.0,69,-99.99,,,0.02,113,weatherlink.com 1.10,2013-02-10 21:44:00,
2013-02-10 16:59:00,74.0,63.0,30.17,ESE,116,1.0,-999.0,68,-99.99,,,0.02,100,weatherlink.com 1.10,2013-02-10 21:59:00,
2013-02-10 17:14:00,73.5,63.0,30.17,East,81,5.0,-999.0,70,-99.99,,,0.02,142,weatherlink.com 1.10,2013-02-10 22:14:00,
2013-02-10 17:29:00,73.3,63.0,30.17,ENE,77,5.0,-999.0,71,-99.99,,,0.02,46,weatherlink.com 1.10,2013-02-10 22:29:00,
2013-02-10 17:44:00,72.9,63.0,30.17,East,80,2.0,-999.0,71,-99.99,,,0.02,32,weatherlink.com 1.10,2013-02-10 22:44:00,
2013-02-10 17:59:00,72.6,63.0,30.17,East,88,4.0,-999.0,72,-99.99,,,0.02,7,weatherlink.com 1.10,2013-02-10 22:59:00,
2013-02-10 18:14:00,72.4,63.0,30.17,East,94,6.0,-999.0,71,-99.99,,,0.02,0,weatherlink.com 1.10,2013-02-10 23:14:00,
2013-02-10 18:29:00,72.3,62.0,30.17,East,87,2.0,-999.0,71,-99.99,,,0.02,0,weatherlink.com 1.10,2013-02-10 23:29:00,
2013-02-10 18:44:00,72.2,63.0,30.18,East,97,1.0,-999.0,72,-99.99,,,0.02,0,weatherlink.com 1.10,2013-02-10 23:44:00,
2013-02-10 18:59:00,72.3,63.0,30.18,East,88,3.0,-999.0,73,-99.99,,,0.02,0,weatherlink.com 1.10,2013-02-10 23:59:00,
2013-02-10 19:14:00,72.2,63.0,30.18,East,79,4.0,-999.0,73,-99.99,,,0.02,0,weatherlink.com 1.10,2013-02-11 00:14:00,
2013-02-10 19:29:00,72.2,63.0,30.18,ESE,107,1.0,-999.0,72,-99.99,,,0.02,0,weatherlink.com 1.10,2013-02-11 00:29:00,
2013-02-10 19:45:00,72.1,63.0,30.19,East,95,1.0,-999.0,73,-99.99,,,0.02,0,weatherlink.com 1.10,2013-02-11 00:45:00,
2013-02-10 19:59:00,72.1,63.0,30.20,ESE,115,0.0,-999.0,73,-99.99,,,0.02,0,weatherlink.com 1.10,2013-02-11 00:59:00,
2013-02-10 20:14:00,72.2,63.0,30.21,ESE,115,0.0,-999.0,72,-99.99,,,0.02,0,weatherlink.com 1.10,2013-02-11 01:14:00,
2013-02-10 20:30:00,72.2,63.0,30.21,ESE,109,4.0,-999.0,72,-99.99,,,0.02,0,weatherlink.com 1.10,2013-02-11 01:30:00,
2013-02-10 20:44:00,72.3,63.0,30.21,ESE,103,0.0,-999.0,73,-99.99,,,0.02,0,weatherlink.com 1.10,2013-02-11 01:44:00,
2013-02-10 20:59:00,72.1,63.0,30.21,ESE,112,0.0,-999.0,73,-99.99,,,0.02,0,weatherlink.com 1.10,2013-02-11 01:59:00,
2013-02-10 21:14:00,72.0,63.0,30.21,East,101,2.0,-999.0,74,-99.99,,,0.02,0,weatherlink.com 1.10,2013-02-11 02:14:00,
2013-02-10 21:30:00,71.9,63.0,30.21,East,85,3.0,-999.0,74,-99.99,,,0.02,0,weatherlink.com 1.10,2013-02-11 02:30:00,
2013-02-10 21:44:00,72.0,63.0,30.22,East,90,4.0,-999.0,74,-99.99,,,0.02,0,weatherlink.com 1.10,2013-02-11 02:44:00,
2013-02-10 21:59:00,71.9,63.0,30.21,ESE,117,5.0,-999.0,74,-99.99,,,0.02,0,weatherlink.com 1.10,2013-02-11 02:59:00,
2013-02-10 22:15:00,71.9,63.0,30.21,East,89,2.0,-999.0,74,-99.99,,,0.02,0,weatherlink.com 1.10,2013-02-11 03:15:00,
2013-02-10 22:29:00,71.7,63.0,30.21,ESE,117,4.0,-999.0,74,-99.99,,,0.02,0,weatherlink.com 1.10,2013-02-11 03:29:00,
2013-02-10 22:44:00,71.7,63.0,30.20,East,90,2.0,-999.0,74,-99.99,,,0.02,0,weatherlink.com 1.10,2013-02-11 03:44:00,
2013-02-10 22:59:00,71.7,63.0,30.20,SE,129,0.0,-999.0,75,-99.99,,,0.02,0,weatherlink.com 1.10,2013-02-11 03:59:00,
2013-02-10 23:14:00,71.6,63.0,30.20,SE,126,2.0,-999.0,75,-99.99,,,0.02,0,weatherlink.com 1.10,2013-02-11 04:14:00,
2013-02-10 23:29:00,71.6,63.0,30.20,East,101,6.0,-999.0,75,-99.99,,,0.02,0,weatherlink.com 1.10,2013-02-11 04:29:00,
2013-02-10 23:44:00,71.5,63.0,30.20,ESE,116,0.0,-999.0,75,-99.99,,,0.02,0,weatherlink.com 1.10,2013-02-11 04:44:00,